sensor_id;sensor_type;location;lat;lon;timestamp;temperature;humidity
3136;DHT22;1578;47.658;9.922;2022-07-23T00:00:17;19.40;36.70
3136;DHT22;1578;47.658;9.922;2022-07-23T00:02:43;19.10;36.80
3136;DHT22;1578;47.658;9.922;2022-07-23T00:05:09;19.10;35.40
3136;DHT22;1578;47.658;9.922;2022-07-23T00:07:35;19.00;36.50
3136;DHT22;1578;47.658;9.922;2022-07-23T00:10:02;19.10;35.40
3136;DHT22;1578;47.658;9.922;2022-07-23T00:12:28;19.20;34.70
3136;DHT22;1578;47.658;9.922;2022-07-23T00:14:54;19.30;34.60
3136;DHT22;1578;47.658;9.922;2022-07-23T00:17:19;19.30;32.70
3136;DHT22;1578;47.658;9.922;2022-07-23T00:19:45;19.30;32.70
3136;DHT22;1578;47.658;9.922;2022-07-23T00:22:11;19.40;34.70
3136;DHT22;1578;47.658;9.922;2022-07-23T00:24:36;19.40;34.80
3136;DHT22;1578;47.658;9.922;2022-07-23T00:27:02;19.30;33.50
3136;DHT22;1578;47.658;9.922;2022-07-23T00:29:30;19.40;34.70
3136;DHT22;1578;47.658;9.922;2022-07-23T00:35:21;19.20;38.40
3136;DHT22;1578;47.658;9.922;2022-07-23T00:37:47;19.00;39.20
3136;DHT22;1578;47.658;9.922;2022-07-23T00:40:13;19.00;39.70
3136;DHT22;1578;47.658;9.922;2022-07-23T00:42:39;18.80;42.80
3136;DHT22;1578;47.658;9.922;2022-07-23T00:45:05;18.70;42.70
3136;DHT22;1578;47.658;9.922;2022-07-23T00:47:31;18.80;42.00
3136;DHT22;1578;47.658;9.922;2022-07-23T00:49:57;18.90;40.20
3136;DHT22;1578;47.658;9.922;2022-07-23T00:52:23;18.80;43.10
3136;DHT22;1578;47.658;9.922;2022-07-23T00:54:48;18.80;45.90
3136;DHT22;1578;47.658;9.922;2022-07-23T00:57:14;18.70;49.70
3136;DHT22;1578;47.658;9.922;2022-07-23T00:59:40;18.50;50.60
3136;DHT22;1578;47.658;9.922;2022-07-23T01:02:06;18.40;52.70
3136;DHT22;1578;47.658;9.922;2022-07-23T01:04:32;18.30;49.30
3136;DHT22;1578;47.658;9.922;2022-07-23T01:06:58;18.20;46.20
3136;DHT22;1578;47.658;9.922;2022-07-23T01:09:24;18.20;45.40
3136;DHT22;1578;47.658;9.922;2022-07-23T01:11:50;18.20;45.10
3136;DHT22;1578;47.658;9.922;2022-07-23T01:14:18;18.20;45.90
3136;DHT22;1578;47.658;9.922;2022-07-23T01:16:45;18.20;45.30
3136;DHT22;1578;47.658;9.922;2022-07-23T01:19:11;18.20;46.70
3136;DHT22;1578;47.658;9.922;2022-07-23T01:21:46;18.20;51.70
3136;DHT22;1578;47.658;9.922;2022-07-23T01:24:12;18.20;55.70
3136;DHT22;1578;47.658;9.922;2022-07-23T01:26:40;18.10;58.50
3136;DHT22;1578;47.658;9.922;2022-07-23T01:29:05;17.90;60.50
3136;DHT22;1578;47.658;9.922;2022-07-23T01:31:32;17.80;64.30
3136;DHT22;1578;47.658;9.922;2022-07-23T01:33:57;17.70;66.80
3136;DHT22;1578;47.658;9.922;2022-07-23T01:36:23;17.70;67.70
3136;DHT22;1578;47.658;9.922;2022-07-23T01:38:49;17.70;67.60
3136;DHT22;1578;47.658;9.922;2022-07-23T01:41:14;17.80;67.40
3136;DHT22;1578;47.658;9.922;2022-07-23T01:43:40;17.70;68.50
3136;DHT22;1578;47.658;9.922;2022-07-23T01:46:06;17.40;72.50
3136;DHT22;1578;47.658;9.922;2022-07-23T01:48:31;17.10;75.80
3136;DHT22;1578;47.658;9.922;2022-07-23T01:50:57;17.10;79.00
3136;DHT22;1578;47.658;9.922;2022-07-23T01:53:22;17.10;71.30
3136;DHT22;1578;47.658;9.922;2022-07-23T01:55:48;17.10;72.20
3136;DHT22;1578;47.658;9.922;2022-07-23T01:58:14;17.10;72.10
3136;DHT22;1578;47.658;9.922;2022-07-23T02:00:39;17.10;71.80
3136;DHT22;1578;47.658;9.922;2022-07-23T02:03:05;17.10;69.10
3136;DHT22;1578;47.658;9.922;2022-07-23T02:05:30;17.20;69.40
3136;DHT22;1578;47.658;9.922;2022-07-23T02:07:58;17.20;69.60
3136;DHT22;1578;47.658;9.922;2022-07-23T02:10:24;17.30;68.30
3136;DHT22;1578;47.658;9.922;2022-07-23T02:12:50;17.30;66.80
3136;DHT22;1578;47.658;9.922;2022-07-23T02:15:16;17.40;67.80
3136;DHT22;1578;47.658;9.922;2022-07-23T02:17:41;17.60;62.20
3136;DHT22;1578;47.658;9.922;2022-07-23T02:20:10;17.60;66.70
3136;DHT22;1578;47.658;9.922;2022-07-23T02:22:36;17.60;68.60
3136;DHT22;1578;47.658;9.922;2022-07-23T02:25:02;17.60;69.70
3136;DHT22;1578;47.658;9.922;2022-07-23T02:27:28;17.60;69.20
3136;DHT22;1578;47.658;9.922;2022-07-23T02:29:54;17.60;67.50
3136;DHT22;1578;47.658;9.922;2022-07-23T02:32:20;17.70;68.40
3136;DHT22;1578;47.658;9.922;2022-07-23T02:34:47;17.80;67.10
3136;DHT22;1578;47.658;9.922;2022-07-23T02:37:13;17.80;65.80
3136;DHT22;1578;47.658;9.922;2022-07-23T02:39:38;17.80;67.90
3136;DHT22;1578;47.658;9.922;2022-07-23T02:42:04;17.90;66.40
3136;DHT22;1578;47.658;9.922;2022-07-23T02:44:30;17.80;67.70
3136;DHT22;1578;47.658;9.922;2022-07-23T02:46:55;17.70;70.40
3136;DHT22;1578;47.658;9.922;2022-07-23T02:49:21;17.90;67.80
3136;DHT22;1578;47.658;9.922;2022-07-23T02:51:46;17.70;69.50
3136;DHT22;1578;47.658;9.922;2022-07-23T02:54:12;17.70;69.70
3136;DHT22;1578;47.658;9.922;2022-07-23T02:56:38;17.70;69.90
3136;DHT22;1578;47.658;9.922;2022-07-23T02:59:03;17.60;70.00
3136;DHT22;1578;47.658;9.922;2022-07-23T03:01:29;17.40;72.00
3136;DHT22;1578;47.658;9.922;2022-07-23T03:03:54;17.40;72.10
3136;DHT22;1578;47.658;9.922;2022-07-23T03:06:20;17.40;72.10
3136;DHT22;1578;47.658;9.922;2022-07-23T03:08:46;17.40;73.00
3136;DHT22;1578;47.658;9.922;2022-07-23T03:11:11;17.40;72.10
3136;DHT22;1578;47.658;9.922;2022-07-23T03:13:40;17.50;72.20
3136;DHT22;1578;47.658;9.922;2022-07-23T03:16:06;17.50;72.10
3136;DHT22;1578;47.658;9.922;2022-07-23T03:18:32;17.50;73.30
3136;DHT22;1578;47.658;9.922;2022-07-23T03:20:59;17.40;73.30
3136;DHT22;1578;47.658;9.922;2022-07-23T03:23:25;17.40;74.30
3136;DHT22;1578;47.658;9.922;2022-07-23T03:25:50;17.40;73.30
3136;DHT22;1578;47.658;9.922;2022-07-23T03:28:16;17.50;74.50
3136;DHT22;1578;47.658;9.922;2022-07-23T03:30:46;17.40;72.40
3136;DHT22;1578;47.658;9.922;2022-07-23T03:33:13;17.40;72.80
3136;DHT22;1578;47.658;9.922;2022-07-23T03:35:39;17.50;73.20
3136;DHT22;1578;47.658;9.922;2022-07-23T03:38:04;17.50;70.60
3136;DHT22;1578;47.658;9.922;2022-07-23T03:40:30;17.60;70.60
3136;DHT22;1578;47.658;9.922;2022-07-23T03:42:56;17.70;70.60
3136;DHT22;1578;47.658;9.922;2022-07-23T03:45:21;17.70;69.10
3136;DHT22;1578;47.658;9.922;2022-07-23T03:47:47;17.80;70.00
3136;DHT22;1578;47.658;9.922;2022-07-23T03:50:12;17.70;69.90
3136;DHT22;1578;47.658;9.922;2022-07-23T03:52:38;17.60;72.60
3136;DHT22;1578;47.658;9.922;2022-07-23T03:55:04;17.60;72.50
3136;DHT22;1578;47.658;9.922;2022-07-23T03:57:30;17.60;72.40
3136;DHT22;1578;47.658;9.922;2022-07-23T03:59:55;17.60;71.70
3136;DHT22;1578;47.658;9.922;2022-07-23T04:02:23;17.70;72.10
3136;DHT22;1578;47.658;9.922;2022-07-23T04:04:49;17.70;70.70
3136;DHT22;1578;47.658;9.922;2022-07-23T04:07:15;17.60;70.70
3136;DHT22;1578;47.658;9.922;2022-07-23T04:09:43;17.60;71.80
3136;DHT22;1578;47.658;9.922;2022-07-23T04:12:09;17.70;72.30
3136;DHT22;1578;47.658;9.922;2022-07-23T04:14:34;17.80;71.70
3136;DHT22;1578;47.658;9.922;2022-07-23T04:17:00;17.70;70.60
3136;DHT22;1578;47.658;9.922;2022-07-23T04:19:26;17.70;68.30
3136;DHT22;1578;47.658;9.922;2022-07-23T04:21:52;17.80;69.50
3136;DHT22;1578;47.658;9.922;2022-07-23T04:24:18;17.90;67.80
3136;DHT22;1578;47.658;9.922;2022-07-23T04:26:44;17.90;69.60
3136;DHT22;1578;47.658;9.922;2022-07-23T04:29:09;17.80;68.60
3136;DHT22;1578;47.658;9.922;2022-07-23T04:31:35;17.80;69.80
3136;DHT22;1578;47.658;9.922;2022-07-23T04:34:01;17.80;68.60
3136;DHT22;1578;47.658;9.922;2022-07-23T04:36:26;17.80;69.00
3136;DHT22;1578;47.658;9.922;2022-07-23T04:38:52;17.80;67.80
3136;DHT22;1578;47.658;9.922;2022-07-23T04:41:18;17.90;68.00
3136;DHT22;1578;47.658;9.922;2022-07-23T04:43:43;17.90;67.30
3136;DHT22;1578;47.658;9.922;2022-07-23T04:46:09;17.90;69.20
3136;DHT22;1578;47.658;9.922;2022-07-23T04:48:36;17.90;67.80
3136;DHT22;1578;47.658;9.922;2022-07-23T04:51:02;17.90;68.30
3136;DHT22;1578;47.658;9.922;2022-07-23T04:53:27;17.90;70.00
3136;DHT22;1578;47.658;9.922;2022-07-23T04:55:53;17.80;69.20
3136;DHT22;1578;47.658;9.922;2022-07-23T04:58:19;17.80;71.30
3136;DHT22;1578;47.658;9.922;2022-07-23T05:00:45;17.90;69.10
3136;DHT22;1578;47.658;9.922;2022-07-23T05:03:11;18.00;69.10
3136;DHT22;1578;47.658;9.922;2022-07-23T05:05:37;18.00;69.30
3136;DHT22;1578;47.658;9.922;2022-07-23T05:08:03;18.00;68.50
3136;DHT22;1578;47.658;9.922;2022-07-23T05:10:29;18.00;67.90
3136;DHT22;1578;47.658;9.922;2022-07-23T05:12:54;18.00;69.30
3136;DHT22;1578;47.658;9.922;2022-07-23T05:15:20;18.10;68.40
3136;DHT22;1578;47.658;9.922;2022-07-23T05:17:45;18.20;69.70
3136;DHT22;1578;47.658;9.922;2022-07-23T05:20:11;18.30;69.00
3136;DHT22;1578;47.658;9.922;2022-07-23T05:22:37;18.10;68.50
3136;DHT22;1578;47.658;9.922;2022-07-23T05:25:03;18.10;70.20
3136;DHT22;1578;47.658;9.922;2022-07-23T05:27:30;18.20;69.90
3136;DHT22;1578;47.658;9.922;2022-07-23T05:29:55;18.20;72.00
3136;DHT22;1578;47.658;9.922;2022-07-23T05:32:21;18.10;72.40
3136;DHT22;1578;47.658;9.922;2022-07-23T05:34:47;18.00;75.90
3136;DHT22;1578;47.658;9.922;2022-07-23T05:37:12;17.90;76.80
3136;DHT22;1578;47.658;9.922;2022-07-23T05:39:38;18.00;76.30
3136;DHT22;1578;47.658;9.922;2022-07-23T05:42:03;18.00;76.00
3136;DHT22;1578;47.658;9.922;2022-07-23T05:44:29;18.10;75.40
3136;DHT22;1578;47.658;9.922;2022-07-23T05:46:55;18.30;75.50
3136;DHT22;1578;47.658;9.922;2022-07-23T05:49:21;18.40;74.00
3136;DHT22;1578;47.658;9.922;2022-07-23T05:51:46;18.50;74.10
3136;DHT22;1578;47.658;9.922;2022-07-23T05:54:12;18.60;74.00
3136;DHT22;1578;47.658;9.922;2022-07-23T05:56:38;18.70;73.60
3136;DHT22;1578;47.658;9.922;2022-07-23T05:59:03;18.80;73.20
3136;DHT22;1578;47.658;9.922;2022-07-23T06:01:29;19.00;73.40
3136;DHT22;1578;47.658;9.922;2022-07-23T06:03:55;19.00;72.20
3136;DHT22;1578;47.658;9.922;2022-07-23T06:06:20;19.00;71.70
3136;DHT22;1578;47.658;9.922;2022-07-23T06:08:46;19.00;72.30
3136;DHT22;1578;47.658;9.922;2022-07-23T06:11:11;19.00;71.10
3136;DHT22;1578;47.658;9.922;2022-07-23T06:13:37;19.00;69.40
3136;DHT22;1578;47.658;9.922;2022-07-23T06:16:03;19.00;69.70
3136;DHT22;1578;47.658;9.922;2022-07-23T06:18:28;19.10;70.50
3136;DHT22;1578;47.658;9.922;2022-07-23T06:20:54;19.10;70.60
3136;DHT22;1578;47.658;9.922;2022-07-23T06:23:20;19.20;72.30
3136;DHT22;1578;47.658;9.922;2022-07-23T06:25:45;19.40;68.60
3136;DHT22;1578;47.658;9.922;2022-07-23T06:28:11;19.50;67.00
3136;DHT22;1578;47.658;9.922;2022-07-23T06:30:37;19.60;65.30
3136;DHT22;1578;47.658;9.922;2022-07-23T06:33:03;19.80;65.80
3136;DHT22;1578;47.658;9.922;2022-07-23T06:35:28;19.80;66.30
3136;DHT22;1578;47.658;9.922;2022-07-23T06:37:54;19.90;62.60
3136;DHT22;1578;47.658;9.922;2022-07-23T06:40:20;20.00;64.30
3136;DHT22;1578;47.658;9.922;2022-07-23T06:42:45;20.00;64.60
3136;DHT22;1578;47.658;9.922;2022-07-23T06:45:11;20.10;62.10
3136;DHT22;1578;47.658;9.922;2022-07-23T06:47:37;20.00;61.50
3136;DHT22;1578;47.658;9.922;2022-07-23T06:50:04;20.00;61.50
3136;DHT22;1578;47.658;9.922;2022-07-23T06:52:29;20.00;63.70
3136;DHT22;1578;47.658;9.922;2022-07-23T06:54:55;20.00;63.00
3136;DHT22;1578;47.658;9.922;2022-07-23T06:57:20;20.10;63.20
3136;DHT22;1578;47.658;9.922;2022-07-23T06:59:46;20.20;63.50
3136;DHT22;1578;47.658;9.922;2022-07-23T07:02:12;20.30;63.30
3136;DHT22;1578;47.658;9.922;2022-07-23T07:04:37;20.30;62.50
3136;DHT22;1578;47.658;9.922;2022-07-23T07:07:04;20.40;64.50
3136;DHT22;1578;47.658;9.922;2022-07-23T07:09:29;20.40;65.90
3136;DHT22;1578;47.658;9.922;2022-07-23T07:11:55;20.60;60.30
3136;DHT22;1578;47.658;9.922;2022-07-23T07:14:22;20.60;57.30
3136;DHT22;1578;47.658;9.922;2022-07-23T07:16:48;20.60;56.10
3136;DHT22;1578;47.658;9.922;2022-07-23T07:19:13;20.60;56.20
3136;DHT22;1578;47.658;9.922;2022-07-23T07:21:42;20.60;57.00
3136;DHT22;1578;47.658;9.922;2022-07-23T07:24:08;20.50;56.40
3136;DHT22;1578;47.658;9.922;2022-07-23T07:26:34;20.50;58.50
3136;DHT22;1578;47.658;9.922;2022-07-23T07:29:00;20.50;57.90
3136;DHT22;1578;47.658;9.922;2022-07-23T07:31:25;20.60;60.00
3136;DHT22;1578;47.658;9.922;2022-07-23T07:33:51;20.70;61.60
3136;DHT22;1578;47.658;9.922;2022-07-23T07:36:17;20.70;62.00
3136;DHT22;1578;47.658;9.922;2022-07-23T07:38:43;20.80;59.50
3136;DHT22;1578;47.658;9.922;2022-07-23T07:41:08;20.80;60.70
3136;DHT22;1578;47.658;9.922;2022-07-23T07:43:35;20.90;61.00
3136;DHT22;1578;47.658;9.922;2022-07-23T07:46:02;20.90;61.00
3136;DHT22;1578;47.658;9.922;2022-07-23T07:48:28;21.00;62.70
3136;DHT22;1578;47.658;9.922;2022-07-23T07:50:54;21.10;64.30
3136;DHT22;1578;47.658;9.922;2022-07-23T07:53:19;21.00;66.00
3136;DHT22;1578;47.658;9.922;2022-07-23T07:55:45;21.00;66.00
3136;DHT22;1578;47.658;9.922;2022-07-23T07:58:11;21.10;64.50
3136;DHT22;1578;47.658;9.922;2022-07-23T08:00:36;21.10;64.00
3136;DHT22;1578;47.658;9.922;2022-07-23T08:03:02;21.20;64.70
3136;DHT22;1578;47.658;9.922;2022-07-23T08:05:29;21.20;63.40
3136;DHT22;1578;47.658;9.922;2022-07-23T08:07:56;21.20;61.30
3136;DHT22;1578;47.658;9.922;2022-07-23T08:10:23;21.20;64.50
3136;DHT22;1578;47.658;9.922;2022-07-23T08:12:51;21.20;61.10
3136;DHT22;1578;47.658;9.922;2022-07-23T08:15:20;21.10;62.80
3136;DHT22;1578;47.658;9.922;2022-07-23T08:17:46;20.90;66.10
3136;DHT22;1578;47.658;9.922;2022-07-23T08:20:14;20.90;65.90
3136;DHT22;1578;47.658;9.922;2022-07-23T08:22:42;20.90;66.60
3136;DHT22;1578;47.658;9.922;2022-07-23T08:25:09;20.70;67.90
3136;DHT22;1578;47.658;9.922;2022-07-23T08:27:34;20.70;69.50
3136;DHT22;1578;47.658;9.922;2022-07-23T08:30:00;20.80;70.30
3136;DHT22;1578;47.658;9.922;2022-07-23T08:32:26;20.90;70.60
3136;DHT22;1578;47.658;9.922;2022-07-23T08:34:52;20.80;69.00
3136;DHT22;1578;47.658;9.922;2022-07-23T08:37:18;20.80;68.50
3136;DHT22;1578;47.658;9.922;2022-07-23T08:39:44;20.80;71.50
3136;DHT22;1578;47.658;9.922;2022-07-23T08:42:09;20.70;71.30
3136;DHT22;1578;47.658;9.922;2022-07-23T08:44:35;20.70;73.90
3136;DHT22;1578;47.658;9.922;2022-07-23T08:47:01;20.70;75.60
3136;DHT22;1578;47.658;9.922;2022-07-23T08:49:28;20.60;75.50
3136;DHT22;1578;47.658;9.922;2022-07-23T08:51:54;20.50;78.40
3136;DHT22;1578;47.658;9.922;2022-07-23T08:54:22;20.50;79.10
3136;DHT22;1578;47.658;9.922;2022-07-23T08:56:48;20.30;81.70
3136;DHT22;1578;47.658;9.922;2022-07-23T08:59:14;20.40;81.70
3136;DHT22;1578;47.658;9.922;2022-07-23T09:01:39;20.40;83.20
3136;DHT22;1578;47.658;9.922;2022-07-23T09:04:05;20.40;82.40
3136;DHT22;1578;47.658;9.922;2022-07-23T09:06:31;20.50;80.80
3136;DHT22;1578;47.658;9.922;2022-07-23T09:08:56;20.70;77.40
3136;DHT22;1578;47.658;9.922;2022-07-23T09:11:22;20.80;75.20
3136;DHT22;1578;47.658;9.922;2022-07-23T09:13:52;20.90;73.30
3136;DHT22;1578;47.658;9.922;2022-07-23T09:16:25;21.00;74.50
3136;DHT22;1578;47.658;9.922;2022-07-23T09:18:54;21.10;73.50
3136;DHT22;1578;47.658;9.922;2022-07-23T09:21:30;21.10;72.10
3136;DHT22;1578;47.658;9.922;2022-07-23T09:24:09;21.00;67.50
3136;DHT22;1578;47.658;9.922;2022-07-23T09:29:11;20.90;72.50
3136;DHT22;1578;47.658;9.922;2022-07-23T09:32:00;20.80;74.20
3136;DHT22;1578;47.658;9.922;2022-07-23T09:34:33;20.90;73.20
3136;DHT22;1578;47.658;9.922;2022-07-23T09:37:19;21.10;69.80
3136;DHT22;1578;47.658;9.922;2022-07-23T09:39:46;21.00;61.10
3136;DHT22;1578;47.658;9.922;2022-07-23T09:42:20;20.90;66.70
3136;DHT22;1578;47.658;9.922;2022-07-23T09:44:49;20.90;66.00
3136;DHT22;1578;47.658;9.922;2022-07-23T09:47:16;20.90;66.90
3136;DHT22;1578;47.658;9.922;2022-07-23T09:52:28;20.90;68.10
3136;DHT22;1578;47.658;9.922;2022-07-23T09:54:58;21.00;64.20
3136;DHT22;1578;47.658;9.922;2022-07-23T09:57:25;21.00;66.00
3136;DHT22;1578;47.658;9.922;2022-07-23T09:59:52;21.00;70.80
3136;DHT22;1578;47.658;9.922;2022-07-23T10:02:18;21.10;72.30
3136;DHT22;1578;47.658;9.922;2022-07-23T10:04:45;21.10;73.60
3136;DHT22;1578;47.658;9.922;2022-07-23T10:07:11;21.20;74.60
3136;DHT22;1578;47.658;9.922;2022-07-23T10:09:42;21.40;73.60
3136;DHT22;1578;47.658;9.922;2022-07-23T10:12:14;21.50;73.90
3136;DHT22;1578;47.658;9.922;2022-07-23T10:14:58;21.70;71.40
3136;DHT22;1578;47.658;9.922;2022-07-23T10:17:25;21.80;68.50
3136;DHT22;1578;47.658;9.922;2022-07-23T10:19:51;21.90;64.80
3136;DHT22;1578;47.658;9.922;2022-07-23T10:22:23;22.00;67.00
3136;DHT22;1578;47.658;9.922;2022-07-23T10:25:12;22.10;62.20
3136;DHT22;1578;47.658;9.922;2022-07-23T10:30:43;21.80;50.10
3136;DHT22;1578;47.658;9.922;2022-07-23T10:33:39;21.70;55.70
3136;DHT22;1578;47.658;9.922;2022-07-23T10:36:36;21.70;61.80
3136;DHT22;1578;47.658;9.922;2022-07-23T10:39:29;21.50;57.10
3136;DHT22;1578;47.658;9.922;2022-07-23T10:42:11;21.50;52.20
3136;DHT22;1578;47.658;9.922;2022-07-23T10:44:47;21.60;50.40
3136;DHT22;1578;47.658;9.922;2022-07-23T10:47:25;21.40;56.80
3136;DHT22;1578;47.658;9.922;2022-07-23T10:53:17;21.30;57.60
3136;DHT22;1578;47.658;9.922;2022-07-23T10:55:51;21.20;56.70
3136;DHT22;1578;47.658;9.922;2022-07-23T10:58:19;21.20;59.30
3136;DHT22;1578;47.658;9.922;2022-07-23T11:00:45;21.20;60.60
3136;DHT22;1578;47.658;9.922;2022-07-23T11:03:31;21.30;61.90
3136;DHT22;1578;47.658;9.922;2022-07-23T11:06:03;21.30;64.10
3136;DHT22;1578;47.658;9.922;2022-07-23T11:08:29;21.20;66.20
3136;DHT22;1578;47.658;9.922;2022-07-23T11:11:15;21.20;59.60
3136;DHT22;1578;47.658;9.922;2022-07-23T11:13:45;21.30;59.90
3136;DHT22;1578;47.658;9.922;2022-07-23T11:16:22;21.30;61.30
3136;DHT22;1578;47.658;9.922;2022-07-23T11:23:59;21.00;58.10
3136;DHT22;1578;47.658;9.922;2022-07-23T11:32:07;21.00;55.20
3136;DHT22;1578;47.658;9.922;2022-07-23T11:34:33;21.10;55.30
3136;DHT22;1578;47.658;9.922;2022-07-23T11:37:00;21.10;57.80
3136;DHT22;1578;47.658;9.922;2022-07-23T11:39:27;21.10;61.90
3136;DHT22;1578;47.658;9.922;2022-07-23T11:41:54;21.20;61.40
3136;DHT22;1578;47.658;9.922;2022-07-23T11:44:37;21.20;64.30
3136;DHT22;1578;47.658;9.922;2022-07-23T11:47:06;21.20;63.50
3136;DHT22;1578;47.658;9.922;2022-07-23T11:49:32;21.20;64.20
3136;DHT22;1578;47.658;9.922;2022-07-23T11:52:08;21.20;65.50
3136;DHT22;1578;47.658;9.922;2022-07-23T11:54:48;21.30;64.70
3136;DHT22;1578;47.658;9.922;2022-07-23T11:57:14;21.30;57.80
3136;DHT22;1578;47.658;9.922;2022-07-23T11:59:39;21.40;62.30
3136;DHT22;1578;47.658;9.922;2022-07-23T12:02:06;21.30;62.30
3136;DHT22;1578;47.658;9.922;2022-07-23T12:04:47;21.30;62.70
3136;DHT22;1578;47.658;9.922;2022-07-23T12:07:34;21.30;62.60
3136;DHT22;1578;47.658;9.922;2022-07-23T12:12:41;21.30;63.40
3136;DHT22;1578;47.658;9.922;2022-07-23T12:15:08;21.20;62.80
3136;DHT22;1578;47.658;9.922;2022-07-23T12:17:36;21.20;62.80
3136;DHT22;1578;47.658;9.922;2022-07-23T12:20:05;21.10;62.20
3136;DHT22;1578;47.658;9.922;2022-07-23T12:22:42;21.20;63.40
3136;DHT22;1578;47.658;9.922;2022-07-23T12:25:13;21.10;62.30
3136;DHT22;1578;47.658;9.922;2022-07-23T12:27:39;21.10;63.60
3136;DHT22;1578;47.658;9.922;2022-07-23T12:30:27;21.10;57.70
3136;DHT22;1578;47.658;9.922;2022-07-23T12:32:55;21.10;59.80
3136;DHT22;1578;47.658;9.922;2022-07-23T12:35:22;21.00;52.20
3136;DHT22;1578;47.658;9.922;2022-07-23T12:37:50;20.90;59.50
3136;DHT22;1578;47.658;9.922;2022-07-23T12:40:56;20.80;62.70
3136;DHT22;1578;47.658;9.922;2022-07-23T12:45:49;20.90;64.60
3136;DHT22;1578;47.658;9.922;2022-07-23T12:48:28;20.90;66.60
3136;DHT22;1578;47.658;9.922;2022-07-23T12:51:04;21.00;66.40
3136;DHT22;1578;47.658;9.922;2022-07-23T12:53:39;21.00;63.80
3136;DHT22;1578;47.658;9.922;2022-07-23T12:56:06;21.00;65.20
3136;DHT22;1578;47.658;9.922;2022-07-23T13:04:07;21.30;64.80
3136;DHT22;1578;47.658;9.922;2022-07-23T13:06:43;21.40;60.20
3136;DHT22;1578;47.658;9.922;2022-07-23T13:09:23;21.50;61.60
3136;DHT22;1578;47.658;9.922;2022-07-23T13:11:51;21.70;63.10
3136;DHT22;1578;47.658;9.922;2022-07-23T13:14:17;21.90;60.40
3136;DHT22;1578;47.658;9.922;2022-07-23T13:16:45;22.00;64.50
3136;DHT22;1578;47.658;9.922;2022-07-23T13:19:11;22.20;57.60
3136;DHT22;1578;47.658;9.922;2022-07-23T13:21:36;22.20;48.00
3136;DHT22;1578;47.658;9.922;2022-07-23T13:24:02;22.30;45.60
3136;DHT22;1578;47.658;9.922;2022-07-23T13:26:28;22.40;44.00
3136;DHT22;1578;47.658;9.922;2022-07-23T13:28:54;22.40;48.50
3136;DHT22;1578;47.658;9.922;2022-07-23T13:31:20;22.50;46.70
3136;DHT22;1578;47.658;9.922;2022-07-23T13:33:46;22.50;43.40
3136;DHT22;1578;47.658;9.922;2022-07-23T13:36:11;22.50;44.00
3136;DHT22;1578;47.658;9.922;2022-07-23T13:38:37;22.40;50.30
3136;DHT22;1578;47.658;9.922;2022-07-23T13:41:04;22.50;46.30
3136;DHT22;1578;47.658;9.922;2022-07-23T13:43:30;22.70;44.40
3136;DHT22;1578;47.658;9.922;2022-07-23T13:45:56;22.90;42.50
3136;DHT22;1578;47.658;9.922;2022-07-23T13:48:22;22.90;42.40
3136;DHT22;1578;47.658;9.922;2022-07-23T13:50:49;22.90;42.30
3136;DHT22;1578;47.658;9.922;2022-07-23T13:53:20;22.80;43.70
3136;DHT22;1578;47.658;9.922;2022-07-23T13:55:48;22.90;45.90
3136;DHT22;1578;47.658;9.922;2022-07-23T13:58:14;22.70;41.20
3136;DHT22;1578;47.658;9.922;2022-07-23T14:00:43;22.80;43.70
3136;DHT22;1578;47.658;9.922;2022-07-23T14:03:09;22.90;36.80
3136;DHT22;1578;47.658;9.922;2022-07-23T14:05:35;23.00;42.00
3136;DHT22;1578;47.658;9.922;2022-07-23T14:08:01;22.90;37.90
3136;DHT22;1578;47.658;9.922;2022-07-23T14:10:27;23.10;37.00
3136;DHT22;1578;47.658;9.922;2022-07-23T14:12:53;23.20;37.00
3136;DHT22;1578;47.658;9.922;2022-07-23T14:15:22;23.20;39.10
3136;DHT22;1578;47.658;9.922;2022-07-23T14:17:48;23.30;35.50
3136;DHT22;1578;47.658;9.922;2022-07-23T14:20:14;23.30;32.80
3136;DHT22;1578;47.658;9.922;2022-07-23T14:22:40;23.30;37.80
3136;DHT22;1578;47.658;9.922;2022-07-23T14:25:07;23.40;34.30
3136;DHT22;1578;47.658;9.922;2022-07-23T14:27:34;23.50;37.70
3136;DHT22;1578;47.658;9.922;2022-07-23T14:30:00;23.70;36.50
3136;DHT22;1578;47.658;9.922;2022-07-23T14:32:26;23.80;35.70
3136;DHT22;1578;47.658;9.922;2022-07-23T14:34:52;24.00;34.80
3136;DHT22;1578;47.658;9.922;2022-07-23T14:37:18;24.10;36.90
3136;DHT22;1578;47.658;9.922;2022-07-23T14:39:45;24.30;31.20
3136;DHT22;1578;47.658;9.922;2022-07-23T14:42:11;24.30;27.20
3136;DHT22;1578;47.658;9.922;2022-07-23T14:44:37;24.30;30.20
3136;DHT22;1578;47.658;9.922;2022-07-23T14:47:04;24.50;31.70
3136;DHT22;1578;47.658;9.922;2022-07-23T14:49:31;24.60;30.20
3136;DHT22;1578;47.658;9.922;2022-07-23T14:51:57;24.60;28.60
3136;DHT22;1578;47.658;9.922;2022-07-23T14:54:23;24.50;32.10
3136;DHT22;1578;47.658;9.922;2022-07-23T14:56:49;24.60;27.60
3136;DHT22;1578;47.658;9.922;2022-07-23T14:59:14;24.60;28.60
3136;DHT22;1578;47.658;9.922;2022-07-23T15:01:40;24.60;25.80
3136;DHT22;1578;47.658;9.922;2022-07-23T15:04:06;24.80;25.00
3136;DHT22;1578;47.658;9.922;2022-07-23T15:06:32;24.90;26.20
3136;DHT22;1578;47.658;9.922;2022-07-23T15:08:58;25.10;26.80
3136;DHT22;1578;47.658;9.922;2022-07-23T15:11:28;25.00;23.60
3136;DHT22;1578;47.658;9.922;2022-07-23T15:13:57;24.90;23.10
3136;DHT22;1578;47.658;9.922;2022-07-23T15:16:22;24.80;24.30
3136;DHT22;1578;47.658;9.922;2022-07-23T15:18:49;24.80;25.60
3136;DHT22;1578;47.658;9.922;2022-07-23T15:21:15;24.70;26.80
3136;DHT22;1578;47.658;9.922;2022-07-23T15:23:40;24.70;27.80
3136;DHT22;1578;47.658;9.922;2022-07-23T15:26:07;24.70;26.10
3136;DHT22;1578;47.658;9.922;2022-07-23T15:28:33;24.80;27.10
3136;DHT22;1578;47.658;9.922;2022-07-23T15:30:59;24.80;28.00
3136;DHT22;1578;47.658;9.922;2022-07-23T15:33:24;24.80;26.40
3136;DHT22;1578;47.658;9.922;2022-07-23T15:35:50;24.70;26.30
3136;DHT22;1578;47.658;9.922;2022-07-23T15:38:18;24.70;27.80
3136;DHT22;1578;47.658;9.922;2022-07-23T15:40:43;24.70;28.30
3136;DHT22;1578;47.658;9.922;2022-07-23T15:43:09;24.60;29.40
3136;DHT22;1578;47.658;9.922;2022-07-23T15:45:37;24.60;28.50
3136;DHT22;1578;47.658;9.922;2022-07-23T15:48:04;24.50;29.20
3136;DHT22;1578;47.658;9.922;2022-07-23T15:50:29;24.70;27.70
3136;DHT22;1578;47.658;9.922;2022-07-23T15:52:55;24.90;27.70
3136;DHT22;1578;47.658;9.922;2022-07-23T15:55:21;25.10;27.30
3136;DHT22;1578;47.658;9.922;2022-07-23T15:57:47;25.10;26.20
3136;DHT22;1578;47.658;9.922;2022-07-23T16:00:12;25.30;26.70
3136;DHT22;1578;47.658;9.922;2022-07-23T16:02:38;25.30;24.70
3136;DHT22;1578;47.658;9.922;2022-07-23T16:05:04;25.10;24.70
3136;DHT22;1578;47.658;9.922;2022-07-23T16:07:30;25.10;26.60
3136;DHT22;1578;47.658;9.922;2022-07-23T16:09:57;25.10;28.30
3136;DHT22;1578;47.658;9.922;2022-07-23T16:12:22;25.20;25.80
3136;DHT22;1578;47.658;9.922;2022-07-23T16:14:48;25.20;26.60
3136;DHT22;1578;47.658;9.922;2022-07-23T16:17:14;25.30;26.80
3136;DHT22;1578;47.658;9.922;2022-07-23T16:19:40;25.40;26.20
3136;DHT22;1578;47.658;9.922;2022-07-23T16:22:05;25.60;23.60
3136;DHT22;1578;47.658;9.922;2022-07-23T16:24:31;25.60;23.40
3136;DHT22;1578;47.658;9.922;2022-07-23T16:26:56;25.60;23.90
3136;DHT22;1578;47.658;9.922;2022-07-23T16:29:22;25.70;22.10
3136;DHT22;1578;47.658;9.922;2022-07-23T16:31:48;25.70;22.80
3136;DHT22;1578;47.658;9.922;2022-07-23T16:34:13;25.70;24.70
3136;DHT22;1578;47.658;9.922;2022-07-23T16:36:39;25.70;22.80
3136;DHT22;1578;47.658;9.922;2022-07-23T16:39:06;25.80;22.90